WEATHER DATA

YESTERDAY
Time Temp. Dewp. Hum. Bar. 1h Prec. 24h Prec.
00:00 2.8 -0.4 79 1024.4 0.0000 0.0000
00:11 2.8 -0.4 79 1024.5 0.0000 0.0000
00:21 2.7 -0.5 79 1024.7 0.0000 0.0000
00:31 2.6 -0.6 79 1024.6 0.0000 0.0000
00:40 2.6 -0.6 79 1024.5 0.0000 0.0000
00:51 2.5 -0.7 79 1024.6 0.0000 0.0000
01:01 2.5 -0.7 79 1024.7 0.0000 0.0000
01:21 2.4 -0.8 79 1024.7 0.0000 0.0000
01:31 2.3 -0.8 79 1024.7 0.0000 0.0000
01:41 2.3 -0.8 79 1024.7 0.0000 0.0000
01:51 2.2 -0.9 79 1024.9 0.0000 0.0000
02:02 2.1 -1 79 1024.6 0.0000 0.0000
02:12 2.1 -1 79 1024.7 0.0000 0.0000
02:22 2 -1.3 78 1024.6 0.0000 0.0000
02:32 2 -1.1 79 1024.6 0.0000 0.0000
02:42 2 -1.1 79 1024.7 0.0000 0.0000
02:52 1.9 -1.2 79 1024.6 0.0000 0.0000
03:02 1.8 -1.3 79 1024.4 0.0000 0.0000
03:13 1.7 -1.4 79 1024.5 0.0000 0.0000
03:22 1.7 -1.4 79 1024.4 0.0000 0.0000
03:32 1.6 -1.5 79 1024.4 0.0000 0.0000
03:42 1.4 -1.6 79 1024.2 0.0000 0.0000
03:53 1.3 -1.6 80 1024.2 0.0000 0.0000
04:03 1.2 -1.6 80 1024 0.0000 0.0000
04:12 1.1 -1.7 80 1024 0.0000 0.0000
04:23 1.1 -1.7 80 1023.9 0.0000 0.0000
04:33 1 -1.7 81 1024 0.0000 0.0000
04:43 0.9 -1.8 81 1023.8 0.0000 0.0000
04:53 0.9 -1.8 81 1023.8 0.0000 0.0000
05:04 0.9 -1.8 81 1023.8 0.0000 0.0000
05:13 0.9 -1.8 81 1023.8 0.0000 0.0000
05:34 0.8 -1.7 82 1023.7 0.0000 0.0000
05:54 0.6 -1.9 82 1023.8 0.0000 0.0000
06:03 0.5 -2 82 1023.7 0.0000 0.0000
06:14 0.5 -2 82 1023.8 0.0000 0.0000
06:24 0.4 -1.9 83 1024 0.0000 0.0000
06:34 0.5 -1.8 83 1023.9 0.0000 0.0000
06:44 0.5 -1.8 83 1023.9 0.0000 0.0000
06:54 0.5 -1.8 83 1023.8 0.0000 0.0000
07:04 0.6 -1.7 83 1023.8 0.0000 0.0000
07:14 0.6 -1.7 83 1023.7 0.0000 0.0000
07:35 0.7 -1.6 83 1023.6 0.0000 0.0000
07:44 0.7 -1.8 82 1023.5 0.0000 0.0000
07:55 0.6 -1.9 82 1023.5 0.0000 0.0000
08:05 0.6 -1.9 82 1023.4 0.0000 0.0000
08:15 0.6 -1.7 83 1023.4 0.0000 0.0000
08:25 0.6 -1.7 83 1023.5 0.0000 0.0000
08:35 0.7 -1.6 83 1023.6 0.0000 0.0000
08:45 0.8 -1.5 83 1023.7 0.0000 0.0000
08:55 0.8 -1.5 83 1023.7 0.0000 0.0000
09:05 0.9 -1.5 83 1023.8 0.0000 0.0000
09:16 1.1 -1.3 83 1023.7 0.0000 0.0000
09:26 1.2 -1.2 83 1023.5 0.0000 0.0000
09:35 1.4 -1.2 82 1023.3 0.0000 0.0000
09:46 1.6 -1 82 1023.4 0.0000 0.0000
09:56 1.8 -1 81 1023.2 0.0000 0.0000
10:14 2.1 -0.9 80 1023.3 0.0000 0.0000
10:33 2.5 -0.8 78 1023.4 0.0000 0.0000
10:44 2.6 -0.9 77 1023.2 0.0000 0.0000
10:54 2.8 -0.7 77 1023.2 0.0000 0.0000
11:03 3 -0.7 76 1023.3 0.0000 0.0000
11:14 3.2 -0.4 77 1022.9 0.0000 0.0000
11:24 3.3 -0.5 76 1022.7 0.0000 0.0000
11:34 3.5 -0.3 76 1022.7 0.0000 0.0000
11:44 3.7 -0.1 76 1022.5 0.0000 0.0000
11:54 3.8 0 76 1022.5 0.0000 0.0000
12:04 3.9 -0.1 75 1022.5 0.0000 0.0000
12:14 4 -0.2 74 1022.5 0.0000 0.0000
12:24 4.2 0 74 1022.4 0.0000 0.0000
12:35 4.3 0.1 74 1022.4 0.0000 0.0000
12:45 4.4 0 73 1022.2 0.0000 0.0000
12:54 4.5 0.1 73 1022.2 0.0000 0.0000
13:05 4.6 0.2 73 1022.1 0.0000 0.0000
13:15 4.7 0.1 72 1022 0.0000 0.0000
13:25 4.8 0.2 72 1022 0.0000 0.0000
13:35 4.9 0.3 72 1021.8 0.0000 0.0000
13:45 5 0.2 71 1021.7 0.0000 0.0000
13:55 5 0.2 71 1021.7 0.0000 0.0000
14:05 5 0.2 71 1021.7 0.0000 0.0000
14:16 5.1 0.1 70 1021.7 0.0000 0.0000
14:26 5.1 -0.1 69 1021.6 0.0000 0.0000
14:35 5.1 -0.1 69 1021.6 0.0000 0.0000
14:45 5.1 -0.1 69 1021.4 0.0000 0.0000
14:56 5.1 0.1 70 1021.5 0.0000 0.0000
15:06 5.1 0.1 70 1021.5 0.0000 0.0000
15:16 5.1 0.1 70 1021.6 0.0000 0.0000
15:26 5.1 0.1 70 1021.5 0.0000 0.0000
15:36 5 0 70 1021.5 0.0000 0.0000
15:46 4.9 -0.1 70 1021.5 0.0000 0.0000
15:56 4.8 -0.2 70 1021.2 0.0000 0.0000
16:07 4.7 -0.3 70 1021.3 0.0000 0.0000
16:16 4.6 -0.3 70 1021.2 0.0000 0.0000
16:26 4.5 -0.4 70 1021.3 0.0000 0.0000
16:37 4.4 -0.5 70 1021 0.0000 0.0000
16:47 4.3 -0.6 70 1021.1 0.0000 0.0000
16:57 4.2 -0.7 70 1021.1 0.0000 0.0000
17:06 4.1 -0.8 70 1021 0.0000 0.0000
17:17 4 -0.9 70 1020.9 0.0000 0.0000
17:27 3.9 -0.9 70 1020.7 0.0000 0.0000
17:37 3.7 -1.1 70 1020.5 0.0000 0.0000
17:47 3.6 -1 71 1020.4 0.0000 0.0000
17:57 3.4 -1.2 71 1020.1 0.0000 0.0000
18:07 3.3 -1.3 71 1020.1 0.0000 0.0000
18:17 3.2 -1.2 72 1020.1 0.0000 0.0000
18:28 3 -1.4 72 1020.1 0.0000 0.0000
18:36 2.9 -1.5 72 1020.1 0.0000 0.0000
18:46 2.8 -1.5 72 1020 0.0000 0.0000
18:56 2.7 -1.6 72 1020.1 0.0000 0.0000
19:06 2.6 -1.7 72 1020 0.0000 0.0000
19:16 2.4 -1.7 73 1019.9 0.0000 0.0000
19:27 2.3 -1.8 73 1019.9 0.0000 0.0000
19:36 2.3 -1.8 73 1020 0.0000 0.0000
19:46 2.2 -1.7 74 1019.9 0.0000 0.0000
19:56 2.2 -1.7 74 1019.9 0.0000 0.0000
20:07 2.1 -1.8 74 1019.7 0.0000 0.0000
20:17 2.1 -1.8 74 1019.3 0.0000 0.0000
20:27 2 -1.7 75 1019.3 0.0000 0.0000
20:37 2 -1.7 75 1019.2 0.0000 0.0000
20:47 1.9 -1.8 75 1019.8 0.0000 0.0000
20:57 1.9 -1.8 75 1019.3 0.0000 0.0000
21:07 1.8 -1.9 75 1019.2 0.0000 0.0000
21:18 1.8 -1.7 76 1019.1 0.0000 0.0000
21:27 1.8 -1.7 76 1019 0.0000 0.0000
21:37 1.8 -1.7 76 1018.9 0.0000 0.0000
21:48 1.7 -1.8 76 1018.9 0.0000 0.0000
21:58 1.7 -1.8 76 1018.8 0.0000 0.0000
22:08 1.6 -1.9 76 1018.7 0.0000 0.0000
22:17 1.5 -2 76 1018.7 0.0000 0.0000
22:28 1.4 -2.1 76 1018.5 0.0000 0.0000
22:38 1.2 -2.3 76 1018.5 0.0000 0.0000
22:48 1.1 -2.2 77 1018.6 0.0000 0.0000
22:58 1 -2.3 77 1018.6 0.0000 0.0000
23:09 0.8 -2.4 77 1018.4 0.0000 0.0000
23:18 0.7 -2.5 77 1018.3 0.0000 0.0000
23:28 0.6 -2.6 77 1018.3 0.0000 0.0000
23:39 0.5 -2.7 77 1018.3 0.0000 0.0000
23:49 0.4 -2.8 77 1018.3 0.0000 0.0000

DAY STATISTIC

2018-11-18
TEMPERATURE
AVERAGE
2.5
HIGH
5.1
14:16
LOW
0.4
06:24
PRESSURE
AVERAGE
1022.1
HIGH
1024.9
01:51
LOW
1018.3
23:18
DEWPOINT
AVERAGE
-1.1
HIGH
0.3
13:35
LOW
-2.8
23:49
HUMIDITY
AVERAGE
76
HIGH
83
06:24
LOW
69
14:26
PRECIPITATION
RAIN HOUR
0.0
RAIN DAY
0.0
TEMPERATURE (°C)
LOW
0.4
HIGH
5.1
AVERAGE
2.5
PRESSURE (hpa)
LOW
1018.3
HIGH
1024.9
AVERAGE
1022.1
DEVICE